sensor_id;sensor_type;location;lat;lon;timestamp;pressure;altitude;pressure_sealevel;temperature;humidity
55540;BME280;41384;51.418;7.286;2023-07-20T00:02:03;99666.47;;;18.18;100.00
55540;BME280;41384;51.418;7.286;2023-07-20T00:04:30;99664.84;;;18.17;100.00
55540;BME280;41384;51.418;7.286;2023-07-20T00:06:56;99662.69;;;18.14;100.00
55540;BME280;41384;51.418;7.286;2023-07-20T00:09:21;99659.22;;;18.13;100.00
55540;BME280;41384;51.418;7.286;2023-07-20T00:11:51;99669.25;;;17.96;100.00
55540;BME280;41384;51.418;7.286;2023-07-20T00:14:16;99665.44;;;18.29;99.76
55540;BME280;41384;51.418;7.286;2023-07-20T00:16:42;99663.88;;;18.38;98.11
55540;BME280;41384;51.418;7.286;2023-07-20T00:19:07;99660.34;;;18.33;98.76
55540;BME280;41384;51.418;7.286;2023-07-20T00:21:35;99656.06;;;18.32;99.39
55540;BME280;41384;51.418;7.286;2023-07-20T00:24:00;99652.59;;;18.26;99.07
55540;BME280;41384;51.418;7.286;2023-07-20T00:26:26;99654.00;;;17.91;100.00
55540;BME280;41384;51.418;7.286;2023-07-20T00:28:51;99653.19;;;17.90;100.00
55540;BME280;41384;51.418;7.286;2023-07-20T00:31:17;99660.41;;;17.90;100.00
55540;BME280;41384;51.418;7.286;2023-07-20T00:33:42;99650.91;;;18.09;100.00
55540;BME280;41384;51.418;7.286;2023-07-20T00:36:07;99651.94;;;18.03;100.00
55540;BME280;41384;51.418;7.286;2023-07-20T00:38:33;99645.53;;;18.04;100.00
55540;BME280;41384;51.418;7.286;2023-07-20T00:40:58;99646.06;;;18.01;100.00
55540;BME280;41384;51.418;7.286;2023-07-20T00:43:23;99642.34;;;18.07;100.00
55540;BME280;41384;51.418;7.286;2023-07-20T00:45:49;99642.41;;;18.13;100.00
55540;BME280;41384;51.418;7.286;2023-07-20T00:48:14;99640.19;;;18.04;100.00
55540;BME280;41384;51.418;7.286;2023-07-20T00:50:40;99643.25;;;17.80;100.00
55540;BME280;41384;51.418;7.286;2023-07-20T00:53:05;99651.72;;;17.67;100.00
55540;BME280;41384;51.418;7.286;2023-07-20T00:55:31;99646.97;;;17.74;100.00
55540;BME280;41384;51.418;7.286;2023-07-20T00:57:57;99641.06;;;17.72;100.00
55540;BME280;41384;51.418;7.286;2023-07-20T01:00:23;99651.19;;;17.65;100.00
55540;BME280;41384;51.418;7.286;2023-07-20T01:02:48;99651.28;;;17.43;100.00
55540;BME280;41384;51.418;7.286;2023-07-20T01:05:14;99650.22;;;17.44;100.00
55540;BME280;41384;51.418;7.286;2023-07-20T01:07:59;99646.59;;;17.23;100.00
55540;BME280;41384;51.418;7.286;2023-07-20T01:10:40;99637.38;;;17.03;100.00
55540;BME280;41384;51.418;7.286;2023-07-20T01:13:07;99644.91;;;17.11;100.00
55540;BME280;41384;51.418;7.286;2023-07-20T01:15:34;99642.38;;;17.27;100.00
55540;BME280;41384;51.418;7.286;2023-07-20T01:17:59;99638.44;;;17.02;100.00
55540;BME280;41384;51.418;7.286;2023-07-20T01:20:28;99645.28;;;17.25;100.00
55540;BME280;41384;51.418;7.286;2023-07-20T01:23:28;99643.81;;;17.07;100.00
55540;BME280;41384;51.418;7.286;2023-07-20T01:31:41;99642.34;;;17.64;100.00
55540;BME280;41384;51.418;7.286;2023-07-20T01:34:08;99634.44;;;17.75;100.00
55540;BME280;41384;51.418;7.286;2023-07-20T01:36:36;99628.28;;;17.74;100.00
55540;BME280;41384;51.418;7.286;2023-07-20T01:39:03;99621.28;;;17.63;100.00
55540;BME280;41384;51.418;7.286;2023-07-20T01:41:29;99623.44;;;17.66;100.00
55540;BME280;41384;51.418;7.286;2023-07-20T01:43:57;99630.06;;;17.63;100.00
55540;BME280;41384;51.418;7.286;2023-07-20T01:46:24;99632.44;;;17.55;100.00
55540;BME280;41384;51.418;7.286;2023-07-20T01:48:49;99629.41;;;17.08;100.00
55540;BME280;41384;51.418;7.286;2023-07-20T01:51:15;99634.31;;;17.21;100.00
55540;BME280;41384;51.418;7.286;2023-07-20T01:53:42;99635.00;;;17.06;100.00
55540;BME280;41384;51.418;7.286;2023-07-20T01:56:08;99636.16;;;16.88;100.00
55540;BME280;41384;51.418;7.286;2023-07-20T01:58:33;99636.38;;;16.82;100.00
55540;BME280;41384;51.418;7.286;2023-07-20T02:00:58;99632.44;;;17.17;100.00
55540;BME280;41384;51.418;7.286;2023-07-20T02:03:24;99625.31;;;17.28;100.00
55540;BME280;41384;51.418;7.286;2023-07-20T02:05:51;99615.66;;;17.21;100.00
55540;BME280;41384;51.418;7.286;2023-07-20T02:08:17;99621.81;;;17.22;100.00
55540;BME280;41384;51.418;7.286;2023-07-20T02:10:45;99617.75;;;17.57;100.00
55540;BME280;41384;51.418;7.286;2023-07-20T02:13:10;99610.69;;;17.78;100.00
55540;BME280;41384;51.418;7.286;2023-07-20T02:15:36;99610.47;;;17.90;100.00
55540;BME280;41384;51.418;7.286;2023-07-20T02:18:01;99605.94;;;17.96;100.00
55540;BME280;41384;51.418;7.286;2023-07-20T02:20:28;99613.72;;;17.98;100.00
55540;BME280;41384;51.418;7.286;2023-07-20T02:22:53;99613.69;;;17.92;100.00
55540;BME280;41384;51.418;7.286;2023-07-20T02:25:19;99615.63;;;18.02;100.00
55540;BME280;41384;51.418;7.286;2023-07-20T02:27:44;99623.13;;;18.11;100.00
55540;BME280;41384;51.418;7.286;2023-07-20T02:30:10;99624.94;;;18.00;100.00
55540;BME280;41384;51.418;7.286;2023-07-20T02:32:36;99620.47;;;18.11;100.00
55540;BME280;41384;51.418;7.286;2023-07-20T02:35:01;99619.91;;;18.03;100.00
55540;BME280;41384;51.418;7.286;2023-07-20T02:37:28;99615.94;;;18.16;100.00
55540;BME280;41384;51.418;7.286;2023-07-20T02:39:54;99613.03;;;18.13;100.00
55540;BME280;41384;51.418;7.286;2023-07-20T02:42:19;99612.09;;;17.91;100.00
55540;BME280;41384;51.418;7.286;2023-07-20T02:44:44;99618.50;;;17.90;100.00
55540;BME280;41384;51.418;7.286;2023-07-20T02:47:10;99621.97;;;17.96;100.00
55540;BME280;41384;51.418;7.286;2023-07-20T02:49:35;99619.97;;;18.14;100.00
55540;BME280;41384;51.418;7.286;2023-07-20T02:52:00;99630.91;;;18.12;100.00
55540;BME280;41384;51.418;7.286;2023-07-20T02:54:26;99624.19;;;18.04;100.00
55540;BME280;41384;51.418;7.286;2023-07-20T02:56:51;99638.59;;;18.03;100.00
55540;BME280;41384;51.418;7.286;2023-07-20T02:59:16;99635.16;;;18.08;100.00
55540;BME280;41384;51.418;7.286;2023-07-20T03:01:41;99637.44;;;17.89;100.00
55540;BME280;41384;51.418;7.286;2023-07-20T03:04:10;99640.75;;;17.63;100.00
55540;BME280;41384;51.418;7.286;2023-07-20T03:06:36;99646.47;;;17.40;100.00
55540;BME280;41384;51.418;7.286;2023-07-20T03:09:02;99647.22;;;17.30;100.00
55540;BME280;41384;51.418;7.286;2023-07-20T03:11:27;99649.81;;;17.62;100.00
55540;BME280;41384;51.418;7.286;2023-07-20T03:13:52;99643.78;;;17.77;100.00
55540;BME280;41384;51.418;7.286;2023-07-20T03:16:19;99643.91;;;17.55;100.00
55540;BME280;41384;51.418;7.286;2023-07-20T03:18:45;99640.00;;;17.68;100.00
55540;BME280;41384;51.418;7.286;2023-07-20T03:21:11;99640.19;;;17.61;100.00
55540;BME280;41384;51.418;7.286;2023-07-20T03:23:37;99642.72;;;17.78;100.00
55540;BME280;41384;51.418;7.286;2023-07-20T03:26:03;99645.28;;;17.63;100.00
55540;BME280;41384;51.418;7.286;2023-07-20T03:28:28;99642.56;;;17.53;100.00
55540;BME280;41384;51.418;7.286;2023-07-20T03:30:57;99647.31;;;17.88;100.00
55540;BME280;41384;51.418;7.286;2023-07-20T03:33:25;99647.84;;;17.85;100.00
55540;BME280;41384;51.418;7.286;2023-07-20T03:35:51;99646.19;;;17.79;100.00
55540;BME280;41384;51.418;7.286;2023-07-20T03:38:16;99660.13;;;17.86;100.00
55540;BME280;41384;51.418;7.286;2023-07-20T03:40:52;99649.72;;;17.90;100.00
55540;BME280;41384;51.418;7.286;2023-07-20T03:43:17;99648.59;;;17.80;100.00
55540;BME280;41384;51.418;7.286;2023-07-20T03:45:43;99648.41;;;17.92;100.00
55540;BME280;41384;51.418;7.286;2023-07-20T03:48:08;99635.31;;;17.96;100.00
55540;BME280;41384;51.418;7.286;2023-07-20T03:50:34;99658.03;;;17.93;100.00
55540;BME280;41384;51.418;7.286;2023-07-20T03:52:59;99649.13;;;17.77;100.00
55540;BME280;41384;51.418;7.286;2023-07-20T03:55:24;99652.94;;;17.92;100.00
55540;BME280;41384;51.418;7.286;2023-07-20T03:57:50;99651.63;;;17.94;100.00
55540;BME280;41384;51.418;7.286;2023-07-20T04:00:16;99656.38;;;17.82;100.00
55540;BME280;41384;51.418;7.286;2023-07-20T04:02:42;99659.22;;;17.70;100.00
55540;BME280;41384;51.418;7.286;2023-07-20T04:05:07;99664.03;;;17.73;100.00
55540;BME280;41384;51.418;7.286;2023-07-20T04:07:33;99657.44;;;17.86;100.00
55540;BME280;41384;51.418;7.286;2023-07-20T04:09:58;99664.16;;;17.94;100.00
55540;BME280;41384;51.418;7.286;2023-07-20T04:12:23;99670.34;;;18.00;100.00
55540;BME280;41384;51.418;7.286;2023-07-20T04:14:48;99669.84;;;18.03;100.00
55540;BME280;41384;51.418;7.286;2023-07-20T04:17:14;99665.22;;;17.93;100.00
55540;BME280;41384;51.418;7.286;2023-07-20T04:19:39;99665.72;;;17.85;100.00
55540;BME280;41384;51.418;7.286;2023-07-20T04:22:04;99660.94;;;17.92;100.00
55540;BME280;41384;51.418;7.286;2023-07-20T04:24:31;99656.66;;;17.91;100.00
55540;BME280;41384;51.418;7.286;2023-07-20T04:26:56;99662.81;;;17.91;100.00
55540;BME280;41384;51.418;7.286;2023-07-20T04:29:21;99662.53;;;17.93;100.00
55540;BME280;41384;51.418;7.286;2023-07-20T04:31:47;99668.41;;;17.90;100.00
55540;BME280;41384;51.418;7.286;2023-07-20T04:34:12;99671.69;;;18.02;100.00
55540;BME280;41384;51.418;7.286;2023-07-20T04:36:37;99678.13;;;18.06;100.00
55540;BME280;41384;51.418;7.286;2023-07-20T04:39:03;99677.47;;;17.89;100.00
55540;BME280;41384;51.418;7.286;2023-07-20T04:41:30;99682.78;;;17.84;100.00
55540;BME280;41384;51.418;7.286;2023-07-20T04:43:55;99679.00;;;17.74;100.00
55540;BME280;41384;51.418;7.286;2023-07-20T04:46:20;99679.72;;;17.64;100.00
55540;BME280;41384;51.418;7.286;2023-07-20T04:48:46;99683.09;;;17.87;100.00
55540;BME280;41384;51.418;7.286;2023-07-20T04:51:13;99688.00;;;17.63;100.00
55540;BME280;41384;51.418;7.286;2023-07-20T04:53:38;99686.31;;;17.89;100.00
55540;BME280;41384;51.418;7.286;2023-07-20T04:56:03;99688.66;;;17.86;100.00
55540;BME280;41384;51.418;7.286;2023-07-20T04:58:29;99691.41;;;17.96;100.00
55540;BME280;41384;51.418;7.286;2023-07-20T05:00:54;99698.59;;;17.90;100.00
55540;BME280;41384;51.418;7.286;2023-07-20T05:03:19;99686.34;;;18.00;100.00
55540;BME280;41384;51.418;7.286;2023-07-20T05:05:46;99689.59;;;18.02;100.00
55540;BME280;41384;51.418;7.286;2023-07-20T05:08:12;99695.38;;;17.88;100.00
55540;BME280;41384;51.418;7.286;2023-07-20T05:10:37;99690.31;;;17.92;100.00
55540;BME280;41384;51.418;7.286;2023-07-20T05:13:02;99688.41;;;17.82;100.00
55540;BME280;41384;51.418;7.286;2023-07-20T05:15:27;99699.31;;;17.80;100.00
55540;BME280;41384;51.418;7.286;2023-07-20T05:17:53;99690.25;;;17.82;100.00
55540;BME280;41384;51.418;7.286;2023-07-20T05:20:18;99684.69;;;17.88;100.00
55540;BME280;41384;51.418;7.286;2023-07-20T05:22:44;99700.47;;;17.95;100.00
55540;BME280;41384;51.418;7.286;2023-07-20T05:25:10;99697.84;;;18.00;100.00
55540;BME280;41384;51.418;7.286;2023-07-20T05:27:36;99696.75;;;17.96;100.00
55540;BME280;41384;51.418;7.286;2023-07-20T05:30:02;99703.97;;;17.96;100.00
55540;BME280;41384;51.418;7.286;2023-07-20T05:32:28;99694.63;;;17.98;100.00
55540;BME280;41384;51.418;7.286;2023-07-20T05:34:53;99700.84;;;18.04;100.00
55540;BME280;41384;51.418;7.286;2023-07-20T05:37:19;99705.38;;;18.08;100.00
55540;BME280;41384;51.418;7.286;2023-07-20T05:39:45;99709.00;;;17.92;100.00
55540;BME280;41384;51.418;7.286;2023-07-20T05:42:10;99703.19;;;17.62;100.00
55540;BME280;41384;51.418;7.286;2023-07-20T05:44:35;99703.53;;;17.71;100.00
55540;BME280;41384;51.418;7.286;2023-07-20T05:47:01;99711.91;;;17.85;100.00
55540;BME280;41384;51.418;7.286;2023-07-20T05:49:27;99718.06;;;17.91;100.00
55540;BME280;41384;51.418;7.286;2023-07-20T05:51:54;99713.97;;;17.73;100.00
55540;BME280;41384;51.418;7.286;2023-07-20T05:54:19;99723.03;;;17.39;100.00
55540;BME280;41384;51.418;7.286;2023-07-20T05:56:45;99717.97;;;17.43;100.00
55540;BME280;41384;51.418;7.286;2023-07-20T05:59:11;99722.22;;;17.71;100.00
55540;BME280;41384;51.418;7.286;2023-07-20T06:01:36;99721.31;;;17.60;100.00
55540;BME280;41384;51.418;7.286;2023-07-20T06:04:01;99726.84;;;17.81;100.00
55540;BME280;41384;51.418;7.286;2023-07-20T06:06:28;99725.00;;;17.54;100.00
55540;BME280;41384;51.418;7.286;2023-07-20T06:08:53;99734.13;;;17.58;100.00
55540;BME280;41384;51.418;7.286;2023-07-20T06:11:19;99738.28;;;17.44;100.00
55540;BME280;41384;51.418;7.286;2023-07-20T06:13:45;99735.72;;;17.59;100.00
55540;BME280;41384;51.418;7.286;2023-07-20T06:16:10;99737.28;;;17.88;100.00
55540;BME280;41384;51.418;7.286;2023-07-20T06:18:35;99734.84;;;17.48;100.00
55540;BME280;41384;51.418;7.286;2023-07-20T06:21:01;99746.81;;;17.46;100.00
55540;BME280;41384;51.418;7.286;2023-07-20T06:23:26;99732.81;;;17.61;100.00
55540;BME280;41384;51.418;7.286;2023-07-20T06:25:51;99742.81;;;17.76;100.00
55540;BME280;41384;51.418;7.286;2023-07-20T06:28:17;99754.16;;;17.61;100.00
55540;BME280;41384;51.418;7.286;2023-07-20T06:30:43;99756.00;;;17.93;100.00
55540;BME280;41384;51.418;7.286;2023-07-20T06:33:08;99749.59;;;17.94;100.00
55540;BME280;41384;51.418;7.286;2023-07-20T06:35:34;99754.78;;;17.41;100.00
55540;BME280;41384;51.418;7.286;2023-07-20T06:38:00;99762.78;;;17.41;100.00
55540;BME280;41384;51.418;7.286;2023-07-20T06:40:26;99754.91;;;17.89;100.00
55540;BME280;41384;51.418;7.286;2023-07-20T06:42:51;99752.78;;;17.91;100.00
55540;BME280;41384;51.418;7.286;2023-07-20T06:45:16;99748.53;;;18.33;100.00
55540;BME280;41384;51.418;7.286;2023-07-20T06:47:42;99751.41;;;17.83;100.00
55540;BME280;41384;51.418;7.286;2023-07-20T06:50:08;99744.66;;;18.08;100.00
55540;BME280;41384;51.418;7.286;2023-07-20T06:52:34;99749.56;;;17.89;100.00
55540;BME280;41384;51.418;7.286;2023-07-20T06:54:59;99744.00;;;17.96;100.00
55540;BME280;41384;51.418;7.286;2023-07-20T06:57:25;99744.22;;;17.89;100.00
55540;BME280;41384;51.418;7.286;2023-07-20T06:59:50;99754.91;;;17.56;100.00
55540;BME280;41384;51.418;7.286;2023-07-20T07:02:15;99750.88;;;17.21;100.00
55540;BME280;41384;51.418;7.286;2023-07-20T07:04:41;99750.72;;;17.65;100.00
55540;BME280;41384;51.418;7.286;2023-07-20T07:07:07;99752.97;;;17.79;100.00
55540;BME280;41384;51.418;7.286;2023-07-20T07:09:33;99756.72;;;18.16;100.00
55540;BME280;41384;51.418;7.286;2023-07-20T07:11:59;99762.44;;;18.35;100.00
55540;BME280;41384;51.418;7.286;2023-07-20T07:14:24;99761.03;;;18.22;100.00
55540;BME280;41384;51.418;7.286;2023-07-20T07:16:49;99759.53;;;18.42;100.00
55540;BME280;41384;51.418;7.286;2023-07-20T07:19:15;99762.38;;;18.25;100.00
55540;BME280;41384;51.418;7.286;2023-07-20T07:21:40;99771.88;;;17.72;100.00
55540;BME280;41384;51.418;7.286;2023-07-20T07:24:05;99772.88;;;17.66;100.00
55540;BME280;41384;51.418;7.286;2023-07-20T07:26:32;99766.56;;;17.77;100.00
55540;BME280;41384;51.418;7.286;2023-07-20T07:28:58;99773.47;;;17.73;100.00
55540;BME280;41384;51.418;7.286;2023-07-20T07:31:25;99769.66;;;17.64;100.00
55540;BME280;41384;51.418;7.286;2023-07-20T07:33:50;99774.06;;;17.48;100.00
55540;BME280;41384;51.418;7.286;2023-07-20T07:36:16;99772.38;;;17.69;100.00
55540;BME280;41384;51.418;7.286;2023-07-20T07:38:41;99781.38;;;17.30;100.00
55540;BME280;41384;51.418;7.286;2023-07-20T07:41:06;99776.41;;;17.72;100.00
55540;BME280;41384;51.418;7.286;2023-07-20T07:43:32;99775.44;;;18.16;100.00
55540;BME280;41384;51.418;7.286;2023-07-20T07:45:58;99773.31;;;18.18;97.20
55540;BME280;41384;51.418;7.286;2023-07-20T07:48:23;99777.88;;;17.90;94.45
55540;BME280;41384;51.418;7.286;2023-07-20T07:50:50;99770.41;;;17.92;95.24
55540;BME280;41384;51.418;7.286;2023-07-20T07:53:15;99775.78;;;17.97;94.31
55540;BME280;41384;51.418;7.286;2023-07-20T07:55:41;99778.44;;;17.97;94.15
55540;BME280;41384;51.418;7.286;2023-07-20T07:58:06;99786.47;;;17.97;94.03
55540;BME280;41384;51.418;7.286;2023-07-20T08:00:31;99790.31;;;17.74;95.54
55540;BME280;41384;51.418;7.286;2023-07-20T08:02:57;99790.81;;;18.03;95.33
55540;BME280;41384;51.418;7.286;2023-07-20T08:05:22;99783.69;;;18.14;94.52
55540;BME280;41384;51.418;7.286;2023-07-20T08:07:47;99792.56;;;18.25;94.21
55540;BME280;41384;51.418;7.286;2023-07-20T08:10:12;99793.34;;;18.20;91.79
55540;BME280;41384;51.418;7.286;2023-07-20T08:12:38;99792.25;;;18.16;90.49
55540;BME280;41384;51.418;7.286;2023-07-20T08:15:03;99792.81;;;17.91;93.03
55540;BME280;41384;51.418;7.286;2023-07-20T08:17:29;99797.34;;;18.18;91.08
55540;BME280;41384;51.418;7.286;2023-07-20T08:19:54;99799.56;;;18.31;88.86
55540;BME280;41384;51.418;7.286;2023-07-20T08:22:20;99794.72;;;18.76;88.92
55540;BME280;41384;51.418;7.286;2023-07-20T08:24:45;99802.25;;;18.95;84.61
55540;BME280;41384;51.418;7.286;2023-07-20T08:27:10;99800.63;;;18.89;83.15
55540;BME280;41384;51.418;7.286;2023-07-20T08:29:36;99796.34;;;18.88;84.29
55540;BME280;41384;51.418;7.286;2023-07-20T08:32:02;99803.69;;;19.13;85.46
55540;BME280;41384;51.418;7.286;2023-07-20T08:34:27;99811.69;;;19.03;86.30
55540;BME280;41384;51.418;7.286;2023-07-20T08:36:53;99810.22;;;18.79;86.63
55540;BME280;41384;51.418;7.286;2023-07-20T08:39:18;99817.22;;;18.91;86.32
55540;BME280;41384;51.418;7.286;2023-07-20T08:41:43;99812.69;;;18.96;82.43
55540;BME280;41384;51.418;7.286;2023-07-20T08:44:10;99814.81;;;18.94;83.39
55540;BME280;41384;51.418;7.286;2023-07-20T08:46:38;99814.31;;;18.98;83.25
55540;BME280;41384;51.418;7.286;2023-07-20T08:49:04;99810.91;;;19.18;83.03
55540;BME280;41384;51.418;7.286;2023-07-20T08:51:30;99805.06;;;19.31;82.28
55540;BME280;41384;51.418;7.286;2023-07-20T08:53:56;99808.25;;;19.28;79.47
55540;BME280;41384;51.418;7.286;2023-07-20T08:56:23;99805.63;;;19.49;79.28
55540;BME280;41384;51.418;7.286;2023-07-20T08:58:51;99815.28;;;19.50;76.54
55540;BME280;41384;51.418;7.286;2023-07-20T09:01:17;99818.50;;;19.57;78.65
55540;BME280;41384;51.418;7.286;2023-07-20T09:03:44;99819.03;;;19.59;77.59
55540;BME280;41384;51.418;7.286;2023-07-20T09:06:10;99824.09;;;19.40;79.29
55540;BME280;41384;51.418;7.286;2023-07-20T09:08:39;99819.56;;;19.56;78.92
55540;BME280;41384;51.418;7.286;2023-07-20T09:11:04;99815.00;;;19.67;76.69
55540;BME280;41384;51.418;7.286;2023-07-20T09:13:32;99805.38;;;19.81;77.31
55540;BME280;41384;51.418;7.286;2023-07-20T09:15:58;99812.84;;;19.59;77.49
55540;BME280;41384;51.418;7.286;2023-07-20T09:18:31;99812.28;;;19.31;78.61
55540;BME280;41384;51.418;7.286;2023-07-20T09:21:04;99813.63;;;19.44;76.65
55540;BME280;41384;51.418;7.286;2023-07-20T09:23:37;99816.59;;;19.63;75.10
55540;BME280;41384;51.418;7.286;2023-07-20T09:26:11;99819.56;;;19.77;74.37
55540;BME280;41384;51.418;7.286;2023-07-20T09:28:51;99807.56;;;19.95;72.21
55540;BME280;41384;51.418;7.286;2023-07-20T09:31:21;99807.22;;;20.22;70.33
55540;BME280;41384;51.418;7.286;2023-07-20T09:33:47;99816.06;;;20.38;67.26
55540;BME280;41384;51.418;7.286;2023-07-20T09:36:13;99808.81;;;20.49;70.20
55540;BME280;41384;51.418;7.286;2023-07-20T09:38:40;99817.59;;;20.81;69.36
55540;BME280;41384;51.418;7.286;2023-07-20T09:41:06;99817.03;;;20.68;68.22
55540;BME280;41384;51.418;7.286;2023-07-20T09:43:34;99812.25;;;20.60;71.02
55540;BME280;41384;51.418;7.286;2023-07-20T09:46:00;99808.84;;;20.34;70.30
55540;BME280;41384;51.418;7.286;2023-07-20T09:48:25;99812.38;;;20.08;70.17
55540;BME280;41384;51.418;7.286;2023-07-20T09:50:52;99818.28;;;20.00;69.35
55540;BME280;41384;51.418;7.286;2023-07-20T09:53:19;99813.41;;;19.61;68.36
55540;BME280;41384;51.418;7.286;2023-07-20T09:55:45;99805.34;;;19.40;66.59
55540;BME280;41384;51.418;7.286;2023-07-20T09:58:11;99811.78;;;19.75;67.99
55540;BME280;41384;51.418;7.286;2023-07-20T10:00:38;99808.34;;;19.90;66.26
55540;BME280;41384;51.418;7.286;2023-07-20T10:03:04;99807.75;;;20.24;67.70
55540;BME280;41384;51.418;7.286;2023-07-20T10:05:34;99802.84;;;20.63;64.78
55540;BME280;41384;51.418;7.286;2023-07-20T10:08:01;99805.75;;;20.71;65.05
55540;BME280;41384;51.418;7.286;2023-07-20T10:10:27;99811.59;;;20.99;62.18
55540;BME280;41384;51.418;7.286;2023-07-20T10:12:53;99815.28;;;21.14;59.42
55540;BME280;41384;51.418;7.286;2023-07-20T10:15:30;99810.34;;;21.32;57.89
55540;BME280;41384;51.418;7.286;2023-07-20T10:20:29;99814.69;;;20.51;59.58
55540;BME280;41384;51.418;7.286;2023-07-20T10:22:57;99814.06;;;20.85;61.30
55540;BME280;41384;51.418;7.286;2023-07-20T10:25:22;99807.56;;;20.97;61.40
55540;BME280;41384;51.418;7.286;2023-07-20T10:27:48;99809.16;;;21.03;61.02
55540;BME280;41384;51.418;7.286;2023-07-20T10:30:14;99809.88;;;21.19;60.48
55540;BME280;41384;51.418;7.286;2023-07-20T10:32:41;99809.34;;;21.17;57.68
55540;BME280;41384;51.418;7.286;2023-07-20T10:35:14;99808.16;;;21.34;58.92
55540;BME280;41384;51.418;7.286;2023-07-20T10:37:53;99809.34;;;21.17;57.00
55540;BME280;41384;51.418;7.286;2023-07-20T10:40:37;99807.88;;;20.75;54.91
55540;BME280;41384;51.418;7.286;2023-07-20T10:43:04;99810.31;;;20.76;56.63
55540;BME280;41384;51.418;7.286;2023-07-20T10:45:40;99805.31;;;21.14;52.26
55540;BME280;41384;51.418;7.286;2023-07-20T10:48:13;99798.22;;;20.89;55.88
55540;BME280;41384;51.418;7.286;2023-07-20T10:50:40;99799.16;;;21.14;56.12
55540;BME280;41384;51.418;7.286;2023-07-20T10:53:16;99799.38;;;21.28;56.69
55540;BME280;41384;51.418;7.286;2023-07-20T10:55:42;99795.81;;;20.88;57.69
55540;BME280;41384;51.418;7.286;2023-07-20T11:00:35;99793.22;;;21.22;58.25
55540;BME280;41384;51.418;7.286;2023-07-20T11:03:00;99792.09;;;21.28;54.81
55540;BME280;41384;51.418;7.286;2023-07-20T11:07:57;99787.78;;;21.72;54.12
55540;BME280;41384;51.418;7.286;2023-07-20T11:10:22;99785.16;;;21.22;51.26
55540;BME280;41384;51.418;7.286;2023-07-20T11:13:16;99775.00;;;21.54;52.20
55540;BME280;41384;51.418;7.286;2023-07-20T11:18:25;99783.75;;;21.75;50.68
55540;BME280;41384;51.418;7.286;2023-07-20T11:20:51;99771.72;;;21.62;53.01
55540;BME280;41384;51.418;7.286;2023-07-20T11:23:17;99777.09;;;21.67;50.62
55540;BME280;41384;51.418;7.286;2023-07-20T11:25:42;99774.25;;;21.83;49.95
55540;BME280;41384;51.418;7.286;2023-07-20T11:28:08;99778.41;;;21.99;52.12
55540;BME280;41384;51.418;7.286;2023-07-20T11:30:36;99779.88;;;21.52;49.58
55540;BME280;41384;51.418;7.286;2023-07-20T11:33:01;99776.06;;;21.58;50.40
55540;BME280;41384;51.418;7.286;2023-07-20T11:35:27;99776.06;;;21.18;51.99
55540;BME280;41384;51.418;7.286;2023-07-20T11:37:52;99771.03;;;21.46;53.77
55540;BME280;41384;51.418;7.286;2023-07-20T11:40:18;99768.84;;;21.13;52.14
55540;BME280;41384;51.418;7.286;2023-07-20T11:42:43;99766.34;;;21.62;53.11
55540;BME280;41384;51.418;7.286;2023-07-20T11:45:09;99765.25;;;21.98;53.74
55540;BME280;41384;51.418;7.286;2023-07-20T11:47:39;99768.66;;;21.79;52.71
55540;BME280;41384;51.418;7.286;2023-07-20T11:50:05;99760.16;;;21.96;51.56
55540;BME280;41384;51.418;7.286;2023-07-20T11:52:31;99757.91;;;22.33;50.34
55540;BME280;41384;51.418;7.286;2023-07-20T11:54:57;99752.78;;;22.61;49.18
55540;BME280;41384;51.418;7.286;2023-07-20T11:57:23;99757.06;;;22.62;50.23
55540;BME280;41384;51.418;7.286;2023-07-20T11:59:56;99756.44;;;22.70;47.86
55540;BME280;41384;51.418;7.286;2023-07-20T12:02:29;99750.22;;;22.70;47.85
55540;BME280;41384;51.418;7.286;2023-07-20T12:04:55;99753.56;;;22.37;47.46
55540;BME280;41384;51.418;7.286;2023-07-20T12:07:21;99745.56;;;22.56;47.96
55540;BME280;41384;51.418;7.286;2023-07-20T12:10:10;99751.16;;;22.36;50.09
55540;BME280;41384;51.418;7.286;2023-07-20T12:12:43;99749.91;;;22.28;50.21
55540;BME280;41384;51.418;7.286;2023-07-20T12:15:35;99757.38;;;22.31;47.72
55540;BME280;41384;51.418;7.286;2023-07-20T12:18:02;99751.69;;;22.81;48.90
55540;BME280;41384;51.418;7.286;2023-07-20T12:20:34;99743.63;;;22.81;47.49
55540;BME280;41384;51.418;7.286;2023-07-20T12:23:11;99752.09;;;22.50;48.72
55540;BME280;41384;51.418;7.286;2023-07-20T12:25:40;99756.94;;;22.24;47.76
55540;BME280;41384;51.418;7.286;2023-07-20T12:28:11;99751.16;;;22.11;47.21
55540;BME280;41384;51.418;7.286;2023-07-20T12:30:38;99753.06;;;22.59;47.90
55540;BME280;41384;51.418;7.286;2023-07-20T12:33:04;99744.56;;;22.71;46.16
55540;BME280;41384;51.418;7.286;2023-07-20T12:35:30;99746.44;;;22.71;47.28
55540;BME280;41384;51.418;7.286;2023-07-20T12:37:55;99748.03;;;22.28;47.39
55540;BME280;41384;51.418;7.286;2023-07-20T12:40:21;99748.78;;;22.05;46.96
55540;BME280;41384;51.418;7.286;2023-07-20T12:42:46;99744.81;;;22.02;44.53
55540;BME280;41384;51.418;7.286;2023-07-20T12:45:11;99735.72;;;22.47;46.42
55540;BME280;41384;51.418;7.286;2023-07-20T12:47:38;99735.03;;;22.60;45.79
55540;BME280;41384;51.418;7.286;2023-07-20T12:50:04;99728.56;;;22.99;46.25
55540;BME280;41384;51.418;7.286;2023-07-20T12:52:31;99725.25;;;23.27;45.58
55540;BME280;41384;51.418;7.286;2023-07-20T12:54:56;99733.59;;;22.87;44.91
55540;BME280;41384;51.418;7.286;2023-07-20T12:57:22;99727.28;;;22.78;43.75
55540;BME280;41384;51.418;7.286;2023-07-20T12:59:47;99726.97;;;23.17;45.70
55540;BME280;41384;51.418;7.286;2023-07-20T13:02:13;99729.53;;;22.70;44.27
55540;BME280;41384;51.418;7.286;2023-07-20T13:04:38;99721.88;;;22.58;43.80
55540;BME280;41384;51.418;7.286;2023-07-20T13:07:03;99730.88;;;22.43;44.45
55540;BME280;41384;51.418;7.286;2023-07-20T13:09:29;99725.81;;;22.42;45.87